Terminal Aerodrome Forecast
Issued by NWS Louisville, KY

Home | Current Version | Previous Version | Text Only | Print | Product List | Glossary On
Versions: 1 2 3 4 5 6 7 8 9 10 11 12 13 14 15 16 17 18 19
483
FTUS43 KLMK 240523
TAFSDF
TAF
KSDF 240523Z 2406/2512 VRB03KT P6SM SCT250
     FM241500 21006KT P6SM SCT050
      TEMPO 2422/2501 BKN050
     FM250200 20003KT P6SM FEW250
      TEMPO 2509/2512 5SM HZ=

USA.gov is the U.S. government's official web portal to all federal, state and local government web resources and services.